createdAt,value
2023-01-08T00:02:39.005Z,99596.50
2023-01-08T00:07:43.931Z,99609.66
2023-01-08T00:12:47.854Z,99601.47
2023-01-08T00:17:51.427Z,99609.53
2023-01-08T00:22:56.484Z,99614.50
2023-01-08T00:28:00.126Z,99617.56
2023-01-08T00:33:04.115Z,99609.78
2023-01-08T00:38:09.352Z,99611.16
2023-01-08T00:43:26.883Z,99613.97
2023-01-08T00:48:31.276Z,99626.28
2023-01-08T00:53:38.424Z,99614.66
2023-01-08T01:06:07.278Z,99620.97
2023-01-08T01:11:18.694Z,99605.69
2023-01-08T01:16:22.662Z,99609.31
2023-01-08T01:21:29.519Z,99602.03
2023-01-08T01:26:36.200Z,99605.66
2023-01-08T01:31:40.222Z,99604.53
2023-01-08T01:36:43.788Z,99607.13
2023-01-08T01:41:49.189Z,99611.81
2023-01-08T01:46:52.808Z,99603.91
2023-01-08T01:52:02.514Z,99597.53
2023-01-08T01:57:09.459Z,99594.47
2023-01-08T02:02:13.891Z,99589.78
2023-01-08T02:07:23.981Z,99584.34
2023-01-08T02:12:35.125Z,99576.22
2023-01-08T02:17:45.014Z,99575.16
2023-01-08T02:23:07.953Z,99560.78
2023-01-08T02:28:14.951Z,99564.19
2023-01-08T02:33:18.469Z,99568.47
2023-01-08T02:38:23.476Z,99554.00
2023-01-08T02:43:34.171Z,99552.97
2023-01-08T02:48:41.552Z,99559.03
2023-01-08T02:53:48.518Z,99560.16
2023-01-08T02:58:55.765Z,99556.50
2023-01-08T03:04:05.307Z,99545.03
2023-01-08T03:09:09.221Z,99547.16
2023-01-08T03:14:20.609Z,99546.81
2023-01-08T03:19:28.220Z,99550.44
2023-01-08T03:24:36.777Z,99547.16
2023-01-08T03:29:42.492Z,99536.22
2023-01-08T03:34:49.624Z,99536.59
2023-01-08T03:39:59.168Z,99546.06
2023-01-08T03:45:05.161Z,99536.22
2023-01-08T03:50:12.412Z,99537.88
2023-01-08T03:55:16.000Z,99546.41
2023-01-08T04:00:20.965Z,99540.50
2023-01-08T04:05:25.998Z,99541.56
2023-01-08T04:10:29.716Z,99542.09
2023-01-08T04:15:36.236Z,99545.53
2023-01-08T04:20:39.979Z,99545.03
2023-01-08T04:25:43.577Z,99547.97
2023-01-08T04:30:48.510Z,99554.19
2023-01-08T04:35:52.454Z,99545.63
2023-01-08T04:40:59.404Z,99545.53
2023-01-08T04:46:07.818Z,99536.09
2023-01-08T04:51:11.782Z,99548.28
2023-01-08T04:56:15.485Z,99545.53
2023-01-08T05:01:23.339Z,99551.91
2023-01-08T05:06:28.463Z,99549.28
2023-01-08T05:11:32.531Z,99550.16
2023-01-08T05:16:37.736Z,99553.53
2023-01-08T05:21:41.350Z,99561.38
2023-01-08T05:26:45.255Z,99560.78
2023-01-08T05:31:50.373Z,99564.38
2023-01-08T05:36:54.269Z,99561.28
2023-01-08T05:41:57.959Z,99560.88
2023-01-08T05:47:03.104Z,99554.09
2023-01-08T05:52:06.784Z,99561.47
2023-01-08T05:57:10.426Z,99555.47
2023-01-08T06:02:15.521Z,99554.38
2023-01-08T06:07:19.174Z,99550.56
2023-01-08T06:12:22.833Z,99556.03
2023-01-08T06:17:28.188Z,99560.00
2023-01-08T06:22:33.472Z,99556.34
2023-01-08T06:27:40.425Z,99566.16
2023-01-08T06:32:45.639Z,99566.31
2023-01-08T06:37:49.399Z,99563.00
2023-01-08T06:42:53.182Z,99561.50
2023-01-08T06:48:02.591Z,99566.56
2023-01-08T06:53:06.220Z,99572.19
2023-01-08T06:58:12.265Z,99578.78
2023-01-08T07:03:17.458Z,99592.81
2023-01-08T07:08:21.541Z,99591.09
2023-01-08T07:13:25.273Z,99599.38
2023-01-08T07:18:30.754Z,99589.97
2023-01-08T07:23:34.917Z,99580.69
2023-01-08T07:28:38.483Z,99591.00
2023-01-08T07:33:43.790Z,99590.22
2023-01-08T07:38:47.535Z,99586.84
2023-01-08T07:43:51.383Z,99589.56
2023-01-08T07:48:57.777Z,99597.00
2023-01-08T07:54:01.667Z,99603.84
2023-01-08T07:59:05.139Z,99595.47
2023-01-08T08:04:10.516Z,99606.09
2023-01-08T08:09:14.096Z,99603.69
2023-01-08T08:14:17.575Z,99609.75
2023-01-08T08:19:22.914Z,99612.63
2023-01-08T08:24:26.400Z,99602.41
2023-01-08T08:29:30.239Z,99603.66
2023-01-08T08:34:36.123Z,99600.19
2023-01-08T08:39:39.748Z,99611.50
2023-01-08T08:44:43.402Z,99611.09
2023-01-08T08:49:48.367Z,99611.97
2023-01-08T08:54:52.124Z,99601.53
2023-01-08T08:59:55.976Z,99609.63
2023-01-08T09:05:01.206Z,99600.34
2023-01-08T09:10:05.583Z,99590.06
2023-01-08T09:15:10.440Z,99595.44
2023-01-08T09:20:15.921Z,99573.03
2023-01-08T09:25:19.952Z,99574.06
2023-01-08T09:30:23.483Z,99573.13
2023-01-08T09:35:28.775Z,99566.06
2023-01-08T09:40:37.027Z,99562.72
2023-01-08T09:45:42.106Z,99569.03
2023-01-08T09:50:48.938Z,99564.09
2023-01-08T09:56:09.055Z,99559.78
2023-01-08T10:01:17.653Z,99555.84
2023-01-08T10:06:25.913Z,99545.34
2023-01-08T10:11:42.436Z,99534.25
2023-01-08T10:16:49.186Z,99520.56
2023-01-08T10:21:55.298Z,99503.41
2023-01-08T10:27:07.428Z,99505.19
2023-01-08T10:32:15.487Z,99500.78
2023-01-08T10:37:27.721Z,99502.59
2023-01-08T10:42:36.791Z,99483.38
2023-01-08T10:47:40.926Z,99487.75
2023-01-08T10:52:54.159Z,99476.47
2023-01-08T10:58:00.881Z,99473.09
2023-01-08T11:03:07.446Z,99479.13
2023-01-08T11:08:18.199Z,99468.72
2023-01-08T11:13:22.084Z,99471.31
2023-01-08T11:18:28.186Z,99472.22
2023-01-08T11:23:33.312Z,99470.44
2023-01-08T11:28:50.617Z,99473.09
2023-01-08T11:34:00.300Z,99463.53
2023-01-08T11:39:07.219Z,99453.09
2023-01-08T11:44:21.897Z,99456.59
2023-01-08T11:49:48.884Z,99451.34
2023-01-08T11:55:15.262Z,99453.94
2023-01-08T12:00:38.788Z,99447.84
2023-01-08T12:05:48.697Z,99443.53
2023-01-08T12:11:06.525Z,99447.88
2023-01-08T12:16:23.643Z,99438.31
2023-01-08T12:21:33.410Z,99435.72
2023-01-08T12:26:47.975Z,99420.94
2023-01-08T12:32:11.962Z,99421.78
2023-01-08T12:37:20.047Z,99422.63
2023-01-08T12:42:32.096Z,99419.91
2023-01-08T12:47:39.595Z,99413.06
2023-01-08T12:52:53.662Z,99414.78
2023-01-08T12:58:08.517Z,99410.44
2023-01-08T13:03:16.469Z,99413.06
2023-01-08T13:08:34.448Z,99413.09
2023-01-08T13:13:44.676Z,99416.59
2023-01-08T13:18:56.861Z,99423.50
2023-01-08T13:24:23.283Z,99437.44
2023-01-08T13:29:40.095Z,99435.69
2023-01-08T13:34:43.807Z,99438.28
2023-01-08T13:39:47.471Z,99449.47
2023-01-08T13:44:53.967Z,99455.56
2023-01-08T13:49:58.980Z,99458.16
2023-01-08T13:55:05.445Z,99465.88
2023-01-08T14:00:19.465Z,99463.88
2023-01-08T14:05:26.525Z,99468.09
2023-01-08T14:10:31.090Z,99476.78
2023-01-08T14:15:37.716Z,99472.94
2023-01-08T14:20:44.914Z,99476.06
2023-01-08T14:25:49.963Z,99473.34
2023-01-08T14:30:58.470Z,99474.88
2023-01-08T14:36:03.690Z,99474.94
2023-01-08T14:41:10.991Z,99478.97
2023-01-08T14:46:23.551Z,99480.50
2023-01-08T14:51:30.592Z,99479.41
2023-01-08T14:56:36.703Z,99478.44
2023-01-08T15:01:42.043Z,99480.69
2023-01-08T15:06:45.871Z,99486.41
2023-01-08T15:11:53.902Z,99479.44
2023-01-08T15:17:01.162Z,99485.28
2023-01-08T15:22:04.783Z,99480.19
2023-01-08T15:27:11.125Z,99478.81
2023-01-08T15:32:24.402Z,99482.16
2023-01-08T15:37:30.518Z,99476.75
2023-01-08T15:42:52.326Z,99481.28
2023-01-08T15:47:57.861Z,99481.84
2023-01-08T15:53:02.755Z,99483.50
2023-01-08T15:58:06.516Z,99479.88
2023-01-08T16:03:13.507Z,99480.72
2023-01-08T16:08:17.600Z,99485.75
2023-01-08T16:13:21.250Z,99479.69
2023-01-08T16:18:26.602Z,99489.06
2023-01-08T16:23:30.197Z,99481.13
2023-01-08T16:28:33.917Z,99476.63
2023-01-08T16:33:39.701Z,99473.19
2023-01-08T16:38:43.232Z,99468.78
2023-01-08T16:43:47.223Z,99478.13
2023-01-08T16:48:52.272Z,99477.03
2023-01-08T16:53:56.312Z,99475.31
2023-01-08T16:59:00.164Z,99481.22
2023-01-08T17:04:05.667Z,99481.88
2023-01-08T17:09:11.780Z,99494.63
2023-01-08T17:14:15.709Z,99497.16
2023-01-08T17:19:20.781Z,99503.97
2023-01-08T17:24:24.357Z,99499.00
2023-01-08T17:29:27.957Z,99503.44
2023-01-08T17:34:33.308Z,99507.16
2023-01-08T17:39:37.117Z,99516.44
2023-01-08T17:44:41.034Z,99513.00
2023-01-08T17:49:46.497Z,99511.31
2023-01-08T17:54:51.062Z,99505.88
2023-01-08T17:59:54.604Z,99507.63
2023-01-08T18:05:00.113Z,99506.00
2023-01-08T18:10:06.850Z,99502.91
2023-01-08T18:15:11.706Z,99504.84
2023-01-08T18:20:17.329Z,99507.19
2023-01-08T18:25:21.444Z,99500.28
2023-01-08T18:30:25.288Z,99495.97
2023-01-08T18:35:30.591Z,99488.16
2023-01-08T18:40:34.223Z,99487.44
2023-01-08T18:45:38.946Z,99495.31
2023-01-08T18:50:44.100Z,99495.38
2023-01-08T18:55:47.960Z,99492.00
2023-01-08T19:00:52.186Z,99492.75
2023-01-08T19:05:57.559Z,99495.31
2023-01-08T19:11:05.917Z,99495.34
2023-01-08T19:16:11.921Z,99502.06
2023-01-08T19:21:21.765Z,99498.47
2023-01-08T19:26:25.686Z,99497.50
2023-01-08T19:31:29.749Z,99507.84
2023-01-08T19:36:35.181Z,99505.94
2023-01-08T19:41:56.163Z,99503.41
2023-01-08T19:46:59.981Z,99515.16
2023-01-08T19:52:05.685Z,99518.72
2023-01-08T19:57:09.531Z,99514.09
2023-01-08T20:02:13.798Z,99508.16
2023-01-08T20:07:19.120Z,99513.31
2023-01-08T20:12:22.813Z,99514.22
2023-01-08T20:17:26.692Z,99510.03
2023-01-08T20:22:31.682Z,99506.75
2023-01-08T20:27:35.315Z,99502.22
2023-01-08T20:32:38.841Z,99494.53
2023-01-08T20:37:45.992Z,99499.53
2023-01-08T20:42:50.190Z,99497.13
2023-01-08T20:47:53.656Z,99504.91
2023-01-08T20:52:58.980Z,99510.97
2023-01-08T20:58:02.742Z,99506.63
2023-01-08T21:03:06.219Z,99513.41
2023-01-08T21:08:11.216Z,99505.09
2023-01-08T21:13:14.859Z,99507.72
2023-01-08T21:18:18.694Z,99517.16
2023-01-08T21:23:23.673Z,99523.94
2023-01-08T21:28:27.550Z,99522.81
2023-01-08T21:33:31.421Z,99514.03
2023-01-08T21:38:38.114Z,99513.22
2023-01-08T21:43:58.777Z,99510.56
2023-01-08T21:49:02.191Z,99506.22
2023-01-08T21:54:07.156Z,99507.75
2023-01-08T21:59:10.766Z,99507.53
2023-01-08T22:04:14.333Z,99508.59
2023-01-08T22:09:19.349Z,99494.72
2023-01-08T22:14:23.258Z,99494.72
2023-01-08T22:19:27.312Z,99491.38
2023-01-08T22:24:32.264Z,99489.88
2023-01-08T22:29:35.858Z,99497.59
2023-01-08T22:34:39.540Z,99493.06
2023-01-08T22:39:44.529Z,99492.38
2023-01-08T22:44:50.372Z,99497.63
2023-01-08T22:49:54.005Z,99497.91
2023-01-08T22:54:59.569Z,99493.38
2023-01-08T23:00:05.920Z,99489.00
2023-01-08T23:05:09.732Z,99490.75
2023-01-08T23:10:14.671Z,99484.00
2023-01-08T23:15:18.880Z,99489.09
2023-01-08T23:20:24.181Z,99490.59
2023-01-08T23:25:30.230Z,99477.13
2023-01-08T23:30:33.759Z,99483.81
2023-01-08T23:35:37.745Z,99480.34
2023-01-08T23:40:45.525Z,99477.91
2023-01-08T23:45:49.099Z,99487.53
2023-01-08T23:50:52.764Z,99483.31
2023-01-08T23:55:57.981Z,99488.31
